sensor_id;sensor_type;location;lat;lon;timestamp;temperature;humidity
23301;DHT22;11819;51.394;12.340;2023-07-13T00:01:49;24.20;58.30
23301;DHT22;11819;51.394;12.340;2023-07-13T00:04:16;24.10;58.10
23301;DHT22;11819;51.394;12.340;2023-07-13T00:06:45;24.10;58.00
23301;DHT22;11819;51.394;12.340;2023-07-13T00:09:14;24.00;57.80
23301;DHT22;11819;51.394;12.340;2023-07-13T00:11:43;24.00;57.80
23301;DHT22;11819;51.394;12.340;2023-07-13T00:14:10;24.00;57.80
23301;DHT22;11819;51.394;12.340;2023-07-13T00:16:37;24.00;57.70
23301;DHT22;11819;51.394;12.340;2023-07-13T00:19:03;24.00;57.60
23301;DHT22;11819;51.394;12.340;2023-07-13T00:21:29;24.10;57.50
23301;DHT22;11819;51.394;12.340;2023-07-13T00:23:55;24.10;57.70
23301;DHT22;11819;51.394;12.340;2023-07-13T00:26:21;24.10;58.10
23301;DHT22;11819;51.394;12.340;2023-07-13T00:28:48;24.00;58.10
23301;DHT22;11819;51.394;12.340;2023-07-13T00:31:14;24.00;58.00
23301;DHT22;11819;51.394;12.340;2023-07-13T00:33:40;24.00;57.50
23301;DHT22;11819;51.394;12.340;2023-07-13T00:36:08;24.00;57.10
23301;DHT22;11819;51.394;12.340;2023-07-13T00:38:34;24.10;56.90
23301;DHT22;11819;51.394;12.340;2023-07-13T00:41:02;24.10;57.60
23301;DHT22;11819;51.394;12.340;2023-07-13T00:43:30;24.00;56.10
23301;DHT22;11819;51.394;12.340;2023-07-13T00:48:32;23.50;55.20
23301;DHT22;11819;51.394;12.340;2023-07-13T00:51:00;23.40;55.70
23301;DHT22;11819;51.394;12.340;2023-07-13T00:53:29;23.30;55.40
23301;DHT22;11819;51.394;12.340;2023-07-13T00:55:57;23.20;55.60
23301;DHT22;11819;51.394;12.340;2023-07-13T00:58:27;23.10;55.90
23301;DHT22;11819;51.394;12.340;2023-07-13T01:00:53;23.10;56.00
23301;DHT22;11819;51.394;12.340;2023-07-13T01:03:20;23.00;56.20
23301;DHT22;11819;51.394;12.340;2023-07-13T01:05:48;23.10;56.40
23301;DHT22;11819;51.394;12.340;2023-07-13T01:08:14;23.00;56.60
23301;DHT22;11819;51.394;12.340;2023-07-13T01:10:41;22.90;57.20
23301;DHT22;11819;51.394;12.340;2023-07-13T01:13:08;22.80;57.70
23301;DHT22;11819;51.394;12.340;2023-07-13T01:15:46;22.70;58.00
23301;DHT22;11819;51.394;12.340;2023-07-13T01:18:17;22.70;58.50
23301;DHT22;11819;51.394;12.340;2023-07-13T01:20:57;22.60;58.90
23301;DHT22;11819;51.394;12.340;2023-07-13T01:23:24;22.60;59.00
23301;DHT22;11819;51.394;12.340;2023-07-13T01:25:50;22.50;58.90
23301;DHT22;11819;51.394;12.340;2023-07-13T01:28:18;22.40;59.00
23301;DHT22;11819;51.394;12.340;2023-07-13T01:30:44;22.40;59.30
23301;DHT22;11819;51.394;12.340;2023-07-13T01:33:16;22.30;59.60
23301;DHT22;11819;51.394;12.340;2023-07-13T01:35:44;22.30;59.80
23301;DHT22;11819;51.394;12.340;2023-07-13T01:38:13;22.40;59.90
23301;DHT22;11819;51.394;12.340;2023-07-13T01:40:41;22.40;59.50
23301;DHT22;11819;51.394;12.340;2023-07-13T01:43:07;22.40;59.50
23301;DHT22;11819;51.394;12.340;2023-07-13T01:45:32;22.30;59.60
23301;DHT22;11819;51.394;12.340;2023-07-13T01:48:00;22.20;59.90
23301;DHT22;11819;51.394;12.340;2023-07-13T01:50:26;22.10;60.30
23301;DHT22;11819;51.394;12.340;2023-07-13T01:52:53;22.10;60.80
23301;DHT22;11819;51.394;12.340;2023-07-13T01:55:19;22.10;60.80
23301;DHT22;11819;51.394;12.340;2023-07-13T01:57:46;22.10;60.80
23301;DHT22;11819;51.394;12.340;2023-07-13T02:00:14;22.10;61.00
23301;DHT22;11819;51.394;12.340;2023-07-13T02:02:46;22.10;60.80
23301;DHT22;11819;51.394;12.340;2023-07-13T02:05:12;22.10;60.90
23301;DHT22;11819;51.394;12.340;2023-07-13T02:07:40;22.10;60.80
23301;DHT22;11819;51.394;12.340;2023-07-13T02:10:08;22.20;61.20
23301;DHT22;11819;51.394;12.340;2023-07-13T02:12:37;22.20;60.80
23301;DHT22;11819;51.394;12.340;2023-07-13T02:15:04;22.10;61.00
23301;DHT22;11819;51.394;12.340;2023-07-13T02:17:32;21.90;61.50
23301;DHT22;11819;51.394;12.340;2023-07-13T02:19:58;21.90;61.90
23301;DHT22;11819;51.394;12.340;2023-07-13T02:22:23;22.00;62.10
23301;DHT22;11819;51.394;12.340;2023-07-13T02:24:49;22.00;61.80
23301;DHT22;11819;51.394;12.340;2023-07-13T02:27:17;21.90;62.00
23301;DHT22;11819;51.394;12.340;2023-07-13T02:29:43;21.80;62.40
23301;DHT22;11819;51.394;12.340;2023-07-13T02:32:09;21.80;62.70
23301;DHT22;11819;51.394;12.340;2023-07-13T02:34:34;21.80;62.80
23301;DHT22;11819;51.394;12.340;2023-07-13T02:37:03;21.90;62.80
23301;DHT22;11819;51.394;12.340;2023-07-13T02:39:30;21.90;62.80
23301;DHT22;11819;51.394;12.340;2023-07-13T02:41:58;21.70;63.10
23301;DHT22;11819;51.394;12.340;2023-07-13T02:44:24;21.60;63.70
23301;DHT22;11819;51.394;12.340;2023-07-13T02:46:50;21.50;64.10
23301;DHT22;11819;51.394;12.340;2023-07-13T02:49:15;21.60;64.30
23301;DHT22;11819;51.394;12.340;2023-07-13T02:51:41;21.50;64.40
23301;DHT22;11819;51.394;12.340;2023-07-13T02:54:08;21.40;65.60
23301;DHT22;11819;51.394;12.340;2023-07-13T02:56:34;21.40;65.00
23301;DHT22;11819;51.394;12.340;2023-07-13T02:59:01;21.30;65.30
23301;DHT22;11819;51.394;12.340;2023-07-13T03:01:26;21.30;65.50
23301;DHT22;11819;51.394;12.340;2023-07-13T03:03:53;21.30;65.40
23301;DHT22;11819;51.394;12.340;2023-07-13T03:06:21;21.30;65.60
23301;DHT22;11819;51.394;12.340;2023-07-13T03:08:51;21.30;65.50
23301;DHT22;11819;51.394;12.340;2023-07-13T03:11:18;21.40;65.50
23301;DHT22;11819;51.394;12.340;2023-07-13T03:13:48;21.40;65.40
23301;DHT22;11819;51.394;12.340;2023-07-13T03:16:16;21.40;65.40
23301;DHT22;11819;51.394;12.340;2023-07-13T03:18:46;21.40;65.40
23301;DHT22;11819;51.394;12.340;2023-07-13T03:21:12;21.30;65.50
23301;DHT22;11819;51.394;12.340;2023-07-13T03:23:39;21.30;65.80
23301;DHT22;11819;51.394;12.340;2023-07-13T03:26:10;21.30;66.00
23301;DHT22;11819;51.394;12.340;2023-07-13T03:28:39;21.30;65.80
23301;DHT22;11819;51.394;12.340;2023-07-13T03:31:09;21.20;66.10
23301;DHT22;11819;51.394;12.340;2023-07-13T03:33:36;21.20;66.40
23301;DHT22;11819;51.394;12.340;2023-07-13T03:36:05;21.20;66.50
23301;DHT22;11819;51.394;12.340;2023-07-13T03:38:32;21.20;66.40
23301;DHT22;11819;51.394;12.340;2023-07-13T03:40:59;21.20;66.40
23301;DHT22;11819;51.394;12.340;2023-07-13T03:43:25;21.20;66.70
23301;DHT22;11819;51.394;12.340;2023-07-13T03:45:52;21.10;66.80
23301;DHT22;11819;51.394;12.340;2023-07-13T03:48:19;21.10;66.80
23301;DHT22;11819;51.394;12.340;2023-07-13T03:50:45;21.10;66.90
23301;DHT22;11819;51.394;12.340;2023-07-13T03:53:12;21.10;67.10
23301;DHT22;11819;51.394;12.340;2023-07-13T03:55:38;21.10;67.30
23301;DHT22;11819;51.394;12.340;2023-07-13T03:58:37;21.10;67.40
23301;DHT22;11819;51.394;12.340;2023-07-13T04:01:12;21.10;67.50
23301;DHT22;11819;51.394;12.340;2023-07-13T04:03:39;21.10;67.50
23301;DHT22;11819;51.394;12.340;2023-07-13T04:06:08;21.10;67.70
23301;DHT22;11819;51.394;12.340;2023-07-13T04:08:37;20.90;68.20
23301;DHT22;11819;51.394;12.340;2023-07-13T04:11:03;20.80;68.80
23301;DHT22;11819;51.394;12.340;2023-07-13T04:13:30;20.80;69.10
23301;DHT22;11819;51.394;12.340;2023-07-13T04:15:55;20.80;69.20
23301;DHT22;11819;51.394;12.340;2023-07-13T04:18:21;20.90;69.20
23301;DHT22;11819;51.394;12.340;2023-07-13T04:20:48;20.90;69.10
23301;DHT22;11819;51.394;12.340;2023-07-13T04:23:15;21.00;69.00
23301;DHT22;11819;51.394;12.340;2023-07-13T04:25:46;21.10;68.90
23301;DHT22;11819;51.394;12.340;2023-07-13T04:28:16;21.10;68.70
23301;DHT22;11819;51.394;12.340;2023-07-13T04:30:43;21.10;68.60
23301;DHT22;11819;51.394;12.340;2023-07-13T04:33:10;21.10;68.70
23301;DHT22;11819;51.394;12.340;2023-07-13T04:35:36;21.00;69.20
23301;DHT22;11819;51.394;12.340;2023-07-13T04:38:03;20.90;69.70
23301;DHT22;11819;51.394;12.340;2023-07-13T04:40:29;21.00;69.80
23301;DHT22;11819;51.394;12.340;2023-07-13T04:42:55;21.00;69.80
23301;DHT22;11819;51.394;12.340;2023-07-13T04:45:21;21.00;70.00
23301;DHT22;11819;51.394;12.340;2023-07-13T04:47:49;21.00;70.20
23301;DHT22;11819;51.394;12.340;2023-07-13T04:50:16;21.10;70.40
23301;DHT22;11819;51.394;12.340;2023-07-13T04:52:46;21.10;70.30
23301;DHT22;11819;51.394;12.340;2023-07-13T04:55:12;21.20;70.10
23301;DHT22;11819;51.394;12.340;2023-07-13T04:57:38;21.30;69.80
23301;DHT22;11819;51.394;12.340;2023-07-13T05:00:04;21.40;69.40
23301;DHT22;11819;51.394;12.340;2023-07-13T05:02:30;21.50;69.00
23301;DHT22;11819;51.394;12.340;2023-07-13T05:04:57;21.60;68.70
23301;DHT22;11819;51.394;12.340;2023-07-13T05:07:22;21.60;68.60
23301;DHT22;11819;51.394;12.340;2023-07-13T05:09:48;21.60;68.40
23301;DHT22;11819;51.394;12.340;2023-07-13T05:12:14;21.70;68.40
23301;DHT22;11819;51.394;12.340;2023-07-13T05:14:40;21.70;68.30
23301;DHT22;11819;51.394;12.340;2023-07-13T05:17:06;21.80;68.10
23301;DHT22;11819;51.394;12.340;2023-07-13T05:19:32;21.90;67.70
23301;DHT22;11819;51.394;12.340;2023-07-13T05:21:57;21.90;67.50
23301;DHT22;11819;51.394;12.340;2023-07-13T05:24:23;22.00;67.30
23301;DHT22;11819;51.394;12.340;2023-07-13T05:26:49;22.10;66.90
23301;DHT22;11819;51.394;12.340;2023-07-13T05:29:15;22.10;66.80
23301;DHT22;11819;51.394;12.340;2023-07-13T05:31:41;22.20;66.70
23301;DHT22;11819;51.394;12.340;2023-07-13T05:34:07;22.30;66.60
23301;DHT22;11819;51.394;12.340;2023-07-13T05:36:32;22.20;66.30
23301;DHT22;11819;51.394;12.340;2023-07-13T05:38:58;22.20;66.40
23301;DHT22;11819;51.394;12.340;2023-07-13T05:41:24;22.20;66.30
23301;DHT22;11819;51.394;12.340;2023-07-13T05:43:50;22.20;66.30
23301;DHT22;11819;51.394;12.340;2023-07-13T05:46:15;22.30;66.30
23301;DHT22;11819;51.394;12.340;2023-07-13T05:48:41;22.30;66.30
23301;DHT22;11819;51.394;12.340;2023-07-13T05:51:07;22.40;66.30
23301;DHT22;11819;51.394;12.340;2023-07-13T05:53:34;22.40;65.90
23301;DHT22;11819;51.394;12.340;2023-07-13T05:56:00;22.50;65.50
23301;DHT22;11819;51.394;12.340;2023-07-13T05:58:26;22.50;65.50
23301;DHT22;11819;51.394;12.340;2023-07-13T06:01:00;22.50;65.80
23301;DHT22;11819;51.394;12.340;2023-07-13T06:03:26;22.50;65.80
23301;DHT22;11819;51.394;12.340;2023-07-13T06:05:51;22.40;65.70
23301;DHT22;11819;51.394;12.340;2023-07-13T06:08:17;22.30;66.30
23301;DHT22;11819;51.394;12.340;2023-07-13T06:10:43;22.20;66.70
23301;DHT22;11819;51.394;12.340;2023-07-13T06:13:08;22.10;66.90
23301;DHT22;11819;51.394;12.340;2023-07-13T06:15:34;22.10;67.10
23301;DHT22;11819;51.394;12.340;2023-07-13T06:17:59;22.20;67.10
23301;DHT22;11819;51.394;12.340;2023-07-13T06:20:25;22.10;67.40
23301;DHT22;11819;51.394;12.340;2023-07-13T06:22:51;22.10;67.60
23301;DHT22;11819;51.394;12.340;2023-07-13T06:25:17;22.20;66.80
23301;DHT22;11819;51.394;12.340;2023-07-13T06:27:43;22.20;66.90
23301;DHT22;11819;51.394;12.340;2023-07-13T06:30:09;22.30;67.20
23301;DHT22;11819;51.394;12.340;2023-07-13T06:32:35;22.30;67.40
23301;DHT22;11819;51.394;12.340;2023-07-13T06:35:01;22.40;67.30
23301;DHT22;11819;51.394;12.340;2023-07-13T06:37:26;22.50;67.20
23301;DHT22;11819;51.394;12.340;2023-07-13T06:39:52;22.50;67.40
23301;DHT22;11819;51.394;12.340;2023-07-13T06:42:18;22.50;67.30
23301;DHT22;11819;51.394;12.340;2023-07-13T06:44:43;22.60;67.40
23301;DHT22;11819;51.394;12.340;2023-07-13T06:47:09;22.50;67.10
23301;DHT22;11819;51.394;12.340;2023-07-13T06:49:35;22.50;67.40
23301;DHT22;11819;51.394;12.340;2023-07-13T06:52:01;22.50;67.00
23301;DHT22;11819;51.394;12.340;2023-07-13T06:54:27;22.60;66.70
23301;DHT22;11819;51.394;12.340;2023-07-13T06:56:53;22.60;66.40
23301;DHT22;11819;51.394;12.340;2023-07-13T06:59:19;22.60;65.20
23301;DHT22;11819;51.394;12.340;2023-07-13T07:01:44;22.60;64.40
23301;DHT22;11819;51.394;12.340;2023-07-13T07:04:10;22.50;64.50
23301;DHT22;11819;51.394;12.340;2023-07-13T07:06:37;22.40;64.70
23301;DHT22;11819;51.394;12.340;2023-07-13T07:09:03;22.40;65.10
23301;DHT22;11819;51.394;12.340;2023-07-13T07:11:28;22.40;65.50
23301;DHT22;11819;51.394;12.340;2023-07-13T07:13:54;22.40;65.80
23301;DHT22;11819;51.394;12.340;2023-07-13T07:16:21;22.50;66.00
23301;DHT22;11819;51.394;12.340;2023-07-13T07:18:47;22.60;65.80
23301;DHT22;11819;51.394;12.340;2023-07-13T07:21:13;22.50;65.40
23301;DHT22;11819;51.394;12.340;2023-07-13T07:23:41;22.50;65.80
23301;DHT22;11819;51.394;12.340;2023-07-13T07:26:08;22.60;65.90
23301;DHT22;11819;51.394;12.340;2023-07-13T07:28:36;22.60;65.20
23301;DHT22;11819;51.394;12.340;2023-07-13T07:31:02;22.70;64.10
23301;DHT22;11819;51.394;12.340;2023-07-13T07:33:27;22.70;63.60
23301;DHT22;11819;51.394;12.340;2023-07-13T07:35:53;22.70;62.70
23301;DHT22;11819;51.394;12.340;2023-07-13T07:38:19;22.80;61.90
23301;DHT22;11819;51.394;12.340;2023-07-13T07:40:44;22.90;58.30
23301;DHT22;11819;51.394;12.340;2023-07-13T07:43:11;22.90;58.50
23301;DHT22;11819;51.394;12.340;2023-07-13T07:45:38;22.90;58.40
23301;DHT22;11819;51.394;12.340;2023-07-13T07:48:05;23.00;59.00
23301;DHT22;11819;51.394;12.340;2023-07-13T07:50:32;23.00;58.60
23301;DHT22;11819;51.394;12.340;2023-07-13T07:52:58;23.00;59.20
23301;DHT22;11819;51.394;12.340;2023-07-13T07:55:28;23.00;58.80
23301;DHT22;11819;51.394;12.340;2023-07-13T07:57:56;23.00;58.90
23301;DHT22;11819;51.394;12.340;2023-07-13T08:00:21;23.00;59.00
23301;DHT22;11819;51.394;12.340;2023-07-13T08:02:47;23.10;59.00
23301;DHT22;11819;51.394;12.340;2023-07-13T08:05:14;23.10;58.90
23301;DHT22;11819;51.394;12.340;2023-07-13T08:07:41;23.20;58.50
23301;DHT22;11819;51.394;12.340;2023-07-13T08:10:07;23.20;57.00
23301;DHT22;11819;51.394;12.340;2023-07-13T08:12:36;23.20;56.20
23301;DHT22;11819;51.394;12.340;2023-07-13T08:15:02;23.20;56.30
23301;DHT22;11819;51.394;12.340;2023-07-13T08:17:29;23.10;56.60
23301;DHT22;11819;51.394;12.340;2023-07-13T08:19:54;23.10;56.40
23301;DHT22;11819;51.394;12.340;2023-07-13T08:22:20;23.10;56.70
23301;DHT22;11819;51.394;12.340;2023-07-13T08:24:48;23.10;56.50
23301;DHT22;11819;51.394;12.340;2023-07-13T08:27:21;23.10;56.20
23301;DHT22;11819;51.394;12.340;2023-07-13T08:29:48;23.10;56.20
23301;DHT22;11819;51.394;12.340;2023-07-13T08:32:14;23.20;56.50
23301;DHT22;11819;51.394;12.340;2023-07-13T08:34:40;23.20;56.10
23301;DHT22;11819;51.394;12.340;2023-07-13T08:37:06;23.10;56.00
23301;DHT22;11819;51.394;12.340;2023-07-13T08:39:33;23.10;56.60
23301;DHT22;11819;51.394;12.340;2023-07-13T08:42:04;23.20;56.60
23301;DHT22;11819;51.394;12.340;2023-07-13T08:47:26;23.20;56.10
23301;DHT22;11819;51.394;12.340;2023-07-13T08:49:53;23.20;56.00
23301;DHT22;11819;51.394;12.340;2023-07-13T08:52:34;23.30;55.90
23301;DHT22;11819;51.394;12.340;2023-07-13T08:55:10;23.40;55.60
23301;DHT22;11819;51.394;12.340;2023-07-13T08:57:38;23.50;55.70
23301;DHT22;11819;51.394;12.340;2023-07-13T09:00:17;23.60;55.70
23301;DHT22;11819;51.394;12.340;2023-07-13T09:02:52;23.80;55.50
23301;DHT22;11819;51.394;12.340;2023-07-13T09:05:27;23.90;54.00
23301;DHT22;11819;51.394;12.340;2023-07-13T09:08:22;24.00;54.60
23301;DHT22;11819;51.394;12.340;2023-07-13T09:13:57;24.10;54.60
23301;DHT22;11819;51.394;12.340;2023-07-13T09:16:25;24.20;54.10
23301;DHT22;11819;51.394;12.340;2023-07-13T09:18:54;24.20;54.00
23301;DHT22;11819;51.394;12.340;2023-07-13T09:21:29;24.20;53.80
23301;DHT22;11819;51.394;12.340;2023-07-13T09:26:44;24.10;54.50
23301;DHT22;11819;51.394;12.340;2023-07-13T09:29:27;24.10;54.10
23301;DHT22;11819;51.394;12.340;2023-07-13T09:31:57;24.20;54.30
23301;DHT22;11819;51.394;12.340;2023-07-13T09:34:25;24.30;54.30
23301;DHT22;11819;51.394;12.340;2023-07-13T09:36:51;24.20;53.70
23301;DHT22;11819;51.394;12.340;2023-07-13T09:42:01;24.30;53.40
23301;DHT22;11819;51.394;12.340;2023-07-13T09:44:37;24.30;53.20
23301;DHT22;11819;51.394;12.340;2023-07-13T09:47:03;24.30;52.90
23301;DHT22;11819;51.394;12.340;2023-07-13T09:49:33;24.30;53.40
23301;DHT22;11819;51.394;12.340;2023-07-13T09:52:03;24.30;53.20
23301;DHT22;11819;51.394;12.340;2023-07-13T09:54:31;24.30;53.30
23301;DHT22;11819;51.394;12.340;2023-07-13T09:56:59;24.20;53.70
23301;DHT22;11819;51.394;12.340;2023-07-13T09:59:33;24.20;53.20
23301;DHT22;11819;51.394;12.340;2023-07-13T10:02:00;24.20;53.20
23301;DHT22;11819;51.394;12.340;2023-07-13T10:04:32;24.20;54.10
23301;DHT22;11819;51.394;12.340;2023-07-13T10:07:07;24.20;54.80
23301;DHT22;11819;51.394;12.340;2023-07-13T10:09:33;24.30;54.60
23301;DHT22;11819;51.394;12.340;2023-07-13T10:11:59;24.40;55.00
23301;DHT22;11819;51.394;12.340;2023-07-13T10:14:25;24.40;54.10
23301;DHT22;11819;51.394;12.340;2023-07-13T10:17:02;24.40;54.00
23301;DHT22;11819;51.394;12.340;2023-07-13T10:19:31;24.50;54.50
23301;DHT22;11819;51.394;12.340;2023-07-13T10:21:59;24.50;54.60
23301;DHT22;11819;51.394;12.340;2023-07-13T10:24:31;24.60;54.40
23301;DHT22;11819;51.394;12.340;2023-07-13T10:27:17;24.60;54.60
23301;DHT22;11819;51.394;12.340;2023-07-13T10:32:24;24.70;53.90
23301;DHT22;11819;51.394;12.340;2023-07-13T10:34:51;24.70;53.90
23301;DHT22;11819;51.394;12.340;2023-07-13T10:37:24;24.70;53.50
23301;DHT22;11819;51.394;12.340;2023-07-13T10:39:54;24.70;52.60
23301;DHT22;11819;51.394;12.340;2023-07-13T10:42:30;24.70;52.90
23301;DHT22;11819;51.394;12.340;2023-07-13T10:44:57;24.70;53.00
23301;DHT22;11819;51.394;12.340;2023-07-13T10:47:24;24.80;52.70
23301;DHT22;11819;51.394;12.340;2023-07-13T10:49:54;24.80;52.20
23301;DHT22;11819;51.394;12.340;2023-07-13T10:52:45;24.90;52.00
23301;DHT22;11819;51.394;12.340;2023-07-13T10:55:41;25.00;52.10
23301;DHT22;11819;51.394;12.340;2023-07-13T11:03:36;24.90;51.50
23301;DHT22;11819;51.394;12.340;2023-07-13T11:06:38;24.90;50.70
23301;DHT22;11819;51.394;12.340;2023-07-13T11:12:02;25.20;50.50
23301;DHT22;11819;51.394;12.340;2023-07-13T11:14:44;25.30;50.50
23301;DHT22;11819;51.394;12.340;2023-07-13T11:23:08;25.30;49.30
23301;DHT22;11819;51.394;12.340;2023-07-13T11:25:36;25.30;47.90
23301;DHT22;11819;51.394;12.340;2023-07-13T11:31:00;25.80;46.30
23301;DHT22;11819;51.394;12.340;2023-07-13T11:36:20;26.10;46.30
23301;DHT22;11819;51.394;12.340;2023-07-13T11:41:32;26.50;48.50
23301;DHT22;11819;51.394;12.340;2023-07-13T11:44:29;26.30;49.20
23301;DHT22;11819;51.394;12.340;2023-07-13T11:46:57;26.40;48.40
23301;DHT22;11819;51.394;12.340;2023-07-13T11:49:31;26.50;47.30
23301;DHT22;11819;51.394;12.340;2023-07-13T11:51:58;26.50;47.50
23301;DHT22;11819;51.394;12.340;2023-07-13T11:54:33;26.40;47.00
23301;DHT22;11819;51.394;12.340;2023-07-13T11:57:24;26.40;46.70
23301;DHT22;11819;51.394;12.340;2023-07-13T11:59:49;26.50;46.50
23301;DHT22;11819;51.394;12.340;2023-07-13T12:03:01;26.50;46.20
23301;DHT22;11819;51.394;12.340;2023-07-13T12:05:11;26.60;46.30
23301;DHT22;11819;51.394;12.340;2023-07-13T12:07:38;26.80;45.00
23301;DHT22;11819;51.394;12.340;2023-07-13T12:12:36;27.10;45.20
23301;DHT22;11819;51.394;12.340;2023-07-13T12:15:07;27.10;45.20
23301;DHT22;11819;51.394;12.340;2023-07-13T12:17:35;27.00;44.60
23301;DHT22;11819;51.394;12.340;2023-07-13T12:20:12;27.00;44.30
23301;DHT22;11819;51.394;12.340;2023-07-13T12:22:46;27.10;43.90
23301;DHT22;11819;51.394;12.340;2023-07-13T12:25:12;27.30;43.70
23301;DHT22;11819;51.394;12.340;2023-07-13T12:27:39;27.40;43.40
23301;DHT22;11819;51.394;12.340;2023-07-13T12:30:24;27.30;43.10
23301;DHT22;11819;51.394;12.340;2023-07-13T12:33:02;27.10;43.50
23301;DHT22;11819;51.394;12.340;2023-07-13T12:35:32;27.00;43.00
23301;DHT22;11819;51.394;12.340;2023-07-13T12:38:08;26.90;43.70
23301;DHT22;11819;51.394;12.340;2023-07-13T12:40:35;27.10;43.50
23301;DHT22;11819;51.394;12.340;2023-07-13T12:43:03;27.20;43.40
23301;DHT22;11819;51.394;12.340;2023-07-13T12:45:32;27.40;43.10
23301;DHT22;11819;51.394;12.340;2023-07-13T12:48:11;27.80;42.80
23301;DHT22;11819;51.394;12.340;2023-07-13T12:50:41;28.00;42.50
23301;DHT22;11819;51.394;12.340;2023-07-13T12:53:14;28.20;42.10
23301;DHT22;11819;51.394;12.340;2023-07-13T12:55:49;28.40;41.20
23301;DHT22;11819;51.394;12.340;2023-07-13T12:58:26;28.50;41.00
23301;DHT22;11819;51.394;12.340;2023-07-13T13:00:54;28.70;41.20
23301;DHT22;11819;51.394;12.340;2023-07-13T13:03:31;28.80;41.00
23301;DHT22;11819;51.394;12.340;2023-07-13T13:06:43;28.60;39.90
23301;DHT22;11819;51.394;12.340;2023-07-13T13:09:00;28.60;40.50
23301;DHT22;11819;51.394;12.340;2023-07-13T13:11:28;28.60;40.50
23301;DHT22;11819;51.394;12.340;2023-07-13T13:13:54;28.70;40.70
23301;DHT22;11819;51.394;12.340;2023-07-13T13:19:20;29.00;40.30
23301;DHT22;11819;51.394;12.340;2023-07-13T13:21:50;29.10;40.60
23301;DHT22;11819;51.394;12.340;2023-07-13T13:24:20;29.20;40.80
23301;DHT22;11819;51.394;12.340;2023-07-13T13:26:46;29.50;40.60
23301;DHT22;11819;51.394;12.340;2023-07-13T13:29:21;29.60;40.50
23301;DHT22;11819;51.394;12.340;2023-07-13T13:31:49;29.70;40.30
23301;DHT22;11819;51.394;12.340;2023-07-13T13:34:16;29.80;40.20
23301;DHT22;11819;51.394;12.340;2023-07-13T13:36:45;29.80;40.00
23301;DHT22;11819;51.394;12.340;2023-07-13T13:39:34;29.70;39.80
23301;DHT22;11819;51.394;12.340;2023-07-13T13:42:00;29.50;40.10
23301;DHT22;11819;51.394;12.340;2023-07-13T13:44:25;29.50;40.70
23301;DHT22;11819;51.394;12.340;2023-07-13T13:46:53;29.60;40.70
23301;DHT22;11819;51.394;12.340;2023-07-13T13:49:22;29.90;40.40
23301;DHT22;11819;51.394;12.340;2023-07-13T13:51:50;30.10;40.00
23301;DHT22;11819;51.394;12.340;2023-07-13T13:54:17;30.00;40.00
23301;DHT22;11819;51.394;12.340;2023-07-13T13:56:45;30.20;40.20
23301;DHT22;11819;51.394;12.340;2023-07-13T13:59:11;30.20;39.40
23301;DHT22;11819;51.394;12.340;2023-07-13T14:01:38;30.10;40.00
23301;DHT22;11819;51.394;12.340;2023-07-13T14:04:05;29.90;39.90
23301;DHT22;11819;51.394;12.340;2023-07-13T14:06:32;29.60;40.30
23301;DHT22;11819;51.394;12.340;2023-07-13T14:09:02;29.40;40.30
23301;DHT22;11819;51.394;12.340;2023-07-13T14:11:29;29.40;40.40
23301;DHT22;11819;51.394;12.340;2023-07-13T14:13:57;29.10;40.50
23301;DHT22;11819;51.394;12.340;2023-07-13T14:16:28;28.90;41.00
23301;DHT22;11819;51.394;12.340;2023-07-13T14:18:55;28.60;41.50
23301;DHT22;11819;51.394;12.340;2023-07-13T14:21:24;28.50;41.90
23301;DHT22;11819;51.394;12.340;2023-07-13T14:23:51;28.40;41.80
23301;DHT22;11819;51.394;12.340;2023-07-13T14:26:23;28.30;42.30
23301;DHT22;11819;51.394;12.340;2023-07-13T14:28:54;28.40;41.80
23301;DHT22;11819;51.394;12.340;2023-07-13T14:31:21;28.80;41.50
23301;DHT22;11819;51.394;12.340;2023-07-13T14:33:47;29.30;41.10
23301;DHT22;11819;51.394;12.340;2023-07-13T14:36:29;29.70;40.60
23301;DHT22;11819;51.394;12.340;2023-07-13T14:38:57;29.70;39.80
23301;DHT22;11819;51.394;12.340;2023-07-13T14:41:23;29.50;40.40
23301;DHT22;11819;51.394;12.340;2023-07-13T14:43:49;29.40;40.50
23301;DHT22;11819;51.394;12.340;2023-07-13T14:46:26;29.70;40.00
23301;DHT22;11819;51.394;12.340;2023-07-13T14:48:59;30.10;39.50
23301;DHT22;11819;51.394;12.340;2023-07-13T14:51:26;30.00;37.80
23301;DHT22;11819;51.394;12.340;2023-07-13T14:53:52;29.50;38.60
23301;DHT22;11819;51.394;12.340;2023-07-13T14:56:17;29.10;39.00
23301;DHT22;11819;51.394;12.340;2023-07-13T14:58:43;28.50;39.70
23301;DHT22;11819;51.394;12.340;2023-07-13T15:01:14;28.30;40.70
23301;DHT22;11819;51.394;12.340;2023-07-13T15:03:44;28.10;40.70
23301;DHT22;11819;51.394;12.340;2023-07-13T15:06:11;27.80;41.00
23301;DHT22;11819;51.394;12.340;2023-07-13T15:08:37;27.60;41.50
23301;DHT22;11819;51.394;12.340;2023-07-13T15:11:03;27.50;42.00
23301;DHT22;11819;51.394;12.340;2023-07-13T15:13:30;27.50;41.80
23301;DHT22;11819;51.394;12.340;2023-07-13T15:15:57;27.50;42.10
23301;DHT22;11819;51.394;12.340;2023-07-13T15:18:25;27.50;42.50
23301;DHT22;11819;51.394;12.340;2023-07-13T15:20:51;27.70;41.70
23301;DHT22;11819;51.394;12.340;2023-07-13T15:23:21;28.10;41.50
23301;DHT22;11819;51.394;12.340;2023-07-13T15:25:48;28.80;41.20
23301;DHT22;11819;51.394;12.340;2023-07-13T15:28:14;29.20;40.30
23301;DHT22;11819;51.394;12.340;2023-07-13T15:30:49;29.50;40.10
23301;DHT22;11819;51.394;12.340;2023-07-13T15:33:17;29.40;40.00
23301;DHT22;11819;51.394;12.340;2023-07-13T15:35:45;29.40;40.30
23301;DHT22;11819;51.394;12.340;2023-07-13T15:38:30;29.50;40.10
23301;DHT22;11819;51.394;12.340;2023-07-13T15:40:57;29.30;39.70
23301;DHT22;11819;51.394;12.340;2023-07-13T15:43:23;28.70;40.30
23301;DHT22;11819;51.394;12.340;2023-07-13T15:45:49;28.20;41.30
23301;DHT22;11819;51.394;12.340;2023-07-13T15:48:22;28.00;42.00
23301;DHT22;11819;51.394;12.340;2023-07-13T15:50:59;27.80;42.00
23301;DHT22;11819;51.394;12.340;2023-07-13T15:53:31;27.80;42.50
23301;DHT22;11819;51.394;12.340;2023-07-13T15:55:57;27.90;42.80
23301;DHT22;11819;51.394;12.340;2023-07-13T15:58:23;27.80;42.70
23301;DHT22;11819;51.394;12.340;2023-07-13T16:00:51;27.70;42.70
23301;DHT22;11819;51.394;12.340;2023-07-13T16:03:20;27.70;42.90
23301;DHT22;11819;51.394;12.340;2023-07-13T16:05:46;28.10;42.80
23301;DHT22;11819;51.394;12.340;2023-07-13T16:08:33;28.30;41.80
23301;DHT22;11819;51.394;12.340;2023-07-13T16:11:02;28.10;42.00